createdAt,value
2019-03-22T00:00:41.254Z,969.08
2019-03-22T00:01:41.237Z,969.09
2019-03-22T00:02:41.226Z,969.05
2019-03-22T00:03:41.209Z,969.08
2019-03-22T00:04:41.188Z,969.04
2019-03-22T00:05:41.174Z,969
2019-03-22T00:06:41.156Z,969.07
2019-03-22T00:07:41.141Z,969.01
2019-03-22T00:08:41.124Z,969.02
2019-03-22T00:09:41.109Z,969.03
2019-03-22T00:10:41.092Z,969
2019-03-22T00:11:41.077Z,969.02
2019-03-22T00:12:41.060Z,968.99
2019-03-22T00:13:41.043Z,969.04
2019-03-22T00:14:41.027Z,969.01
2019-03-22T00:15:41.011Z,969.01
2019-03-22T00:16:40.994Z,969.03
2019-03-22T00:17:40.981Z,969.06
2019-03-22T00:18:40.964Z,969.03
2019-03-22T00:19:40.947Z,969.05
2019-03-22T00:20:40.931Z,969.02
2019-03-22T00:21:40.914Z,969
2019-03-22T00:22:40.899Z,969.01
2019-03-22T00:23:40.880Z,968.99
2019-03-22T00:24:40.866Z,968.96
2019-03-22T00:25:40.850Z,968.96
2019-03-22T00:26:40.834Z,968.99
2019-03-22T00:27:40.815Z,968.99
2019-03-22T00:28:40.800Z,969.02
2019-03-22T00:29:40.783Z,968.99
2019-03-22T00:30:40.768Z,968.99
2019-03-22T00:31:40.750Z,969.04
2019-03-22T00:32:40.734Z,968.99
2019-03-22T00:33:40.719Z,969
2019-03-22T00:34:40.701Z,969.02
2019-03-22T00:35:40.687Z,968.97
2019-03-22T00:36:40.669Z,968.96
2019-03-22T00:37:40.653Z,968.98
2019-03-22T00:38:40.637Z,968.96
2019-03-22T00:39:40.621Z,968.99
2019-03-22T00:40:40.603Z,969
2019-03-22T00:41:40.587Z,968.95
2019-03-22T00:42:40.572Z,969.01
2019-03-22T00:43:40.554Z,968.99
2019-03-22T00:44:40.538Z,968.95
2019-03-22T00:45:40.520Z,968.93
2019-03-22T00:46:40.508Z,968.93
2019-03-22T00:47:40.493Z,968.95
2019-03-22T00:48:40.473Z,968.91
2019-03-22T00:49:40.459Z,968.95
2019-03-22T00:50:40.441Z,968.91
2019-03-22T00:51:40.423Z,968.86
2019-03-22T00:52:40.407Z,968.84
2019-03-22T00:53:40.390Z,968.84
2019-03-22T00:54:40.373Z,968.82
2019-03-22T00:55:40.356Z,968.85
2019-03-22T00:56:40.340Z,968.82
2019-03-22T00:57:40.324Z,968.8
2019-03-22T00:58:40.309Z,968.8
2019-03-22T00:59:40.291Z,968.79
2019-03-22T01:00:40.276Z,968.75
2019-03-22T01:01:40.259Z,968.79
2019-03-22T01:02:40.242Z,968.81
2019-03-22T01:03:40.226Z,968.81
2019-03-22T01:04:40.210Z,968.81
2019-03-22T01:05:40.194Z,968.81
2019-03-22T01:06:40.177Z,968.77
2019-03-22T01:07:40.164Z,968.79
2019-03-22T01:08:40.144Z,968.74
2019-03-22T01:09:40.129Z,968.77
2019-03-22T01:10:40.110Z,968.75
2019-03-22T01:11:40.094Z,968.76
2019-03-22T01:12:40.078Z,968.74
2019-03-22T01:13:40.062Z,968.79
2019-03-22T01:14:40.044Z,968.79
2019-03-22T01:15:40.034Z,968.75
2019-03-22T01:16:40.013Z,968.74
2019-03-22T01:17:39.996Z,968.73
2019-03-22T01:18:39.979Z,968.78
2019-03-22T01:19:39.962Z,968.76
2019-03-22T01:20:39.947Z,968.73
2019-03-22T01:21:39.930Z,968.71
2019-03-22T01:22:39.913Z,968.68
2019-03-22T01:23:39.898Z,968.68
2019-03-22T01:24:39.882Z,968.69
2019-03-22T01:25:39.863Z,968.64
2019-03-22T01:26:39.853Z,968.63
2019-03-22T01:27:41.148Z,968.65
2019-03-22T01:28:39.813Z,968.65
2019-03-22T01:29:39.802Z,968.65
2019-03-22T01:30:39.782Z,968.67
2019-03-22T01:31:39.766Z,968.63
2019-03-22T01:32:39.749Z,968.64
2019-03-22T01:33:39.733Z,968.66
2019-03-22T01:34:39.717Z,968.66
2019-03-22T01:35:39.701Z,968.65
2019-03-22T01:36:39.683Z,968.63
2019-03-22T01:37:39.666Z,968.66
2019-03-22T01:38:39.649Z,968.68
2019-03-22T01:39:39.632Z,968.68
2019-03-22T01:40:39.616Z,968.67
2019-03-22T01:41:39.601Z,968.7
2019-03-22T01:42:39.583Z,968.62
2019-03-22T01:43:39.567Z,968.62
2019-03-22T01:44:39.550Z,968.62
2019-03-22T01:45:39.534Z,968.64
2019-03-22T01:46:39.519Z,968.67
2019-03-22T01:47:39.505Z,968.64
2019-03-22T01:48:39.486Z,968.67
2019-03-22T01:49:39.468Z,968.66
2019-03-22T01:50:39.452Z,968.66
2019-03-22T01:51:39.436Z,968.65
2019-03-22T01:52:39.420Z,968.65
2019-03-22T01:53:39.413Z,968.61
2019-03-22T01:54:39.386Z,968.59
2019-03-22T01:55:39.370Z,968.58
2019-03-22T01:56:39.353Z,968.58
2019-03-22T01:57:39.338Z,968.58
2019-03-22T01:58:39.319Z,968.56
2019-03-22T01:59:39.303Z,968.56
2019-03-22T02:00:39.289Z,968.53
2019-03-22T02:01:39.269Z,968.54
2019-03-22T02:02:39.254Z,968.54
2019-03-22T02:03:39.237Z,968.56
2019-03-22T02:04:39.224Z,968.55
2019-03-22T02:05:39.211Z,968.56
2019-03-22T02:06:39.187Z,968.54
2019-03-22T02:07:39.171Z,968.55
2019-03-22T02:08:39.158Z,968.55
2019-03-22T02:09:39.138Z,968.53
2019-03-22T02:10:39.123Z,968.54
2019-03-22T02:11:39.106Z,968.53
2019-03-22T02:12:39.090Z,968.55
2019-03-22T02:13:39.074Z,968.53
2019-03-22T02:14:39.056Z,968.48
2019-03-22T02:15:39.041Z,968.39
2019-03-22T02:16:39.024Z,968.38
2019-03-22T02:17:39.007Z,968.37
2019-03-22T02:18:38.991Z,968.39
2019-03-22T02:19:38.973Z,968.34
2019-03-22T02:20:38.957Z,968.33
2019-03-22T02:21:38.940Z,968.31
2019-03-22T02:22:38.925Z,968.28
2019-03-22T02:23:38.910Z,968.32
2019-03-22T02:24:38.892Z,968.3
2019-03-22T02:25:38.873Z,968.32
2019-03-22T02:26:38.858Z,968.31
2019-03-22T02:27:38.841Z,968.33
2019-03-22T02:28:38.825Z,968.32
2019-03-22T02:29:38.809Z,968.31
2019-03-22T02:30:38.793Z,968.27
2019-03-22T02:31:38.775Z,968.28
2019-03-22T02:32:38.761Z,968.27
2019-03-22T02:33:38.744Z,968.26
2019-03-22T02:34:38.727Z,968.25
2019-03-22T02:35:38.710Z,968.26
2019-03-22T02:36:38.693Z,968.23
2019-03-22T02:37:38.678Z,968.22
2019-03-22T02:38:38.661Z,968.24
2019-03-22T02:39:38.820Z,968.22
2019-03-22T02:40:38.645Z,968.24
2019-03-22T02:41:38.614Z,968.24
2019-03-22T02:42:38.597Z,968.25
2019-03-22T02:43:38.578Z,968.29
2019-03-22T02:44:38.562Z,968.3
2019-03-22T02:45:38.544Z,968.32
2019-03-22T02:46:38.529Z,968.29
2019-03-22T02:47:38.513Z,968.33
2019-03-22T02:48:38.496Z,968.29
2019-03-22T02:49:38.479Z,968.31
2019-03-22T02:50:38.462Z,968.26
2019-03-22T02:51:38.446Z,968.31
2019-03-22T02:52:38.429Z,968.31
2019-03-22T02:53:38.439Z,968.29
2019-03-22T02:54:38.396Z,968.28
2019-03-22T02:55:38.382Z,968.25
2019-03-22T02:56:38.367Z,968.29
2019-03-22T02:57:38.350Z,968.24
2019-03-22T02:58:38.330Z,968.25
2019-03-22T02:59:38.324Z,968.32
2019-03-22T03:00:38.295Z,968.29
2019-03-22T03:01:38.281Z,968.31
2019-03-22T03:02:38.264Z,968.27
2019-03-22T03:03:38.247Z,968.29
2019-03-22T03:04:38.234Z,968.27
2019-03-22T03:05:38.215Z,968.28
2019-03-22T03:06:38.198Z,968.26
2019-03-22T03:07:38.202Z,968.23
2019-03-22T03:08:38.164Z,968.24
2019-03-22T03:09:38.150Z,968.23
2019-03-22T03:10:38.130Z,968.26
2019-03-22T03:11:38.113Z,968.21
2019-03-22T03:12:38.099Z,968.24
2019-03-22T03:13:38.081Z,968.26
2019-03-22T03:14:38.079Z,968.28
2019-03-22T03:15:38.048Z,968.3
2019-03-22T03:16:38.033Z,968.31
2019-03-22T03:17:38.016Z,968.37
2019-03-22T03:18:37.997Z,968.36
2019-03-22T03:19:37.980Z,968.37
2019-03-22T03:20:37.965Z,968.35
2019-03-22T03:21:37.948Z,968.34
2019-03-22T03:22:37.931Z,968.36
2019-03-22T03:23:37.916Z,968.38
2019-03-22T03:24:37.908Z,968.32
2019-03-22T03:25:37.881Z,968.35
2019-03-22T03:26:37.865Z,968.34
2019-03-22T03:27:37.847Z,968.34
2019-03-22T03:28:37.893Z,968.32
2019-03-22T03:29:37.813Z,968.34
2019-03-22T03:30:37.798Z,968.39
2019-03-22T03:31:37.782Z,968.34
2019-03-22T03:32:37.765Z,968.32
2019-03-22T03:33:37.752Z,968.35
2019-03-22T03:34:37.730Z,968.35
2019-03-22T03:35:37.724Z,968.31
2019-03-22T03:36:37.700Z,968.28
2019-03-22T03:37:37.692Z,968.3
2019-03-22T03:38:37.685Z,968.27
2019-03-22T03:39:37.647Z,968.25
2019-03-22T03:40:37.633Z,968.26
2019-03-22T03:41:37.613Z,968.27
2019-03-22T03:42:37.598Z,968.3
2019-03-22T03:43:37.580Z,968.26
2019-03-22T03:44:37.563Z,968.26
2019-03-22T03:45:37.549Z,968.22
2019-03-22T03:46:37.532Z,968.24
2019-03-22T03:47:37.512Z,968.18
2019-03-22T03:48:37.497Z,968.2
2019-03-22T03:49:37.485Z,968.15
2019-03-22T03:50:37.463Z,968.2
2019-03-22T03:51:37.446Z,968.16
2019-03-22T03:52:39.450Z,968.21
2019-03-22T03:53:37.414Z,968.18
2019-03-22T03:54:37.416Z,968.22
2019-03-22T03:55:37.387Z,968.22
2019-03-22T03:56:37.364Z,968.25
2019-03-22T03:57:37.345Z,968.22
2019-03-22T03:58:51.440Z,968.24
2019-03-22T03:59:37.312Z,968.22
2019-03-22T04:00:37.297Z,968.21
2019-03-22T04:01:37.283Z,968.2
2019-03-22T04:02:37.260Z,968.2
2019-03-22T04:03:37.243Z,968.19
2019-03-22T04:04:37.227Z,968.18
2019-03-22T04:05:37.210Z,968.2
2019-03-22T04:06:37.194Z,968.18
2019-03-22T04:07:37.178Z,968.22
2019-03-22T04:08:37.164Z,968.24
2019-03-22T04:09:37.144Z,968.23
2019-03-22T04:10:37.158Z,968.26
2019-03-22T04:11:37.110Z,968.25
2019-03-22T04:12:37.092Z,968.26
2019-03-22T04:13:37.078Z,968.23
2019-03-22T04:14:37.060Z,968.24
2019-03-22T04:15:37.050Z,968.26
2019-03-22T04:16:37.026Z,968.27
2019-03-22T04:17:37.016Z,968.26
2019-03-22T04:18:36.992Z,968.23
2019-03-22T04:19:36.980Z,968.27
2019-03-22T04:20:36.959Z,968.25
2019-03-22T04:21:36.941Z,968.21
2019-03-22T04:22:36.934Z,968.24
2019-03-22T04:23:36.909Z,968.23
2019-03-22T04:24:36.891Z,968.21
2019-03-22T04:25:36.874Z,968.24
2019-03-22T04:26:36.858Z,968.23
2019-03-22T04:27:36.841Z,968.24
2019-03-22T04:28:36.823Z,968.22
2019-03-22T04:29:36.816Z,968.23
2019-03-22T04:30:36.791Z,968.25
2019-03-22T04:31:36.773Z,968.27
2019-03-22T04:32:36.755Z,968.28
2019-03-22T04:33:36.753Z,968.27
2019-03-22T04:34:36.724Z,968.3
2019-03-22T04:35:36.708Z,968.33
2019-03-22T04:36:36.699Z,968.28
2019-03-22T04:37:36.675Z,968.29
2019-03-22T04:38:36.659Z,968.26
2019-03-22T04:39:36.639Z,968.28
2019-03-22T04:40:36.622Z,968.24
2019-03-22T04:41:36.606Z,968.27
2019-03-22T04:42:36.588Z,968.27
2019-03-22T04:43:36.573Z,968.3
2019-03-22T04:44:36.554Z,968.27
2019-03-22T04:45:36.539Z,968.26
2019-03-22T04:46:36.521Z,968.25
2019-03-22T04:47:36.503Z,968.3
2019-03-22T04:48:36.489Z,968.31
2019-03-22T04:49:36.471Z,968.32
2019-03-22T04:50:36.454Z,968.36
2019-03-22T04:51:36.437Z,968.32
2019-03-22T04:52:36.421Z,968.36
2019-03-22T04:53:36.404Z,968.36
2019-03-22T04:54:36.386Z,968.38
2019-03-22T04:55:36.371Z,968.42
2019-03-22T04:56:36.357Z,968.4
2019-03-22T04:57:36.335Z,968.44
2019-03-22T04:58:36.319Z,968.44
2019-03-22T04:59:36.302Z,968.45
2019-03-22T05:00:36.286Z,968.46
2019-03-22T05:01:36.272Z,968.47
2019-03-22T05:02:36.253Z,968.49
2019-03-22T05:03:36.235Z,968.48
2019-03-22T05:04:36.219Z,968.47
2019-03-22T05:05:36.202Z,968.47
2019-03-22T05:06:36.185Z,968.45
2019-03-22T05:07:36.169Z,968.44
2019-03-22T05:08:36.150Z,968.5
2019-03-22T05:09:36.134Z,968.46
2019-03-22T05:10:36.119Z,968.44
2019-03-22T05:11:36.100Z,968.45
2019-03-22T05:12:36.085Z,968.44
2019-03-22T05:13:36.067Z,968.47
2019-03-22T05:14:36.051Z,968.45
2019-03-22T05:15:36.034Z,968.5
2019-03-22T05:16:36.017Z,968.49
2019-03-22T05:17:36.000Z,968.51
2019-03-22T05:18:35.985Z,968.54
2019-03-22T05:19:35.968Z,968.56
2019-03-22T05:20:35.951Z,968.63
2019-03-22T05:21:35.935Z,968.59
2019-03-22T05:22:35.921Z,968.63
2019-03-22T05:23:35.901Z,968.64
2019-03-22T05:24:35.885Z,968.63
2019-03-22T05:25:35.870Z,968.57
2019-03-22T05:26:35.852Z,968.53
2019-03-22T05:27:35.834Z,968.55
2019-03-22T05:28:35.818Z,968.53
2019-03-22T05:29:35.802Z,968.52
2019-03-22T05:30:35.785Z,968.51
2019-03-22T05:31:35.921Z,968.53
2019-03-22T05:32:35.752Z,968.5
2019-03-22T05:33:35.734Z,968.52
2019-03-22T05:34:35.718Z,968.48
2019-03-22T05:35:35.704Z,968.49
2019-03-22T05:36:35.690Z,968.59
2019-03-22T05:37:35.669Z,968.55
2019-03-22T05:38:35.657Z,968.62
2019-03-22T05:39:35.638Z,968.62
2019-03-22T05:40:35.619Z,968.57
2019-03-22T05:41:35.602Z,968.55
2019-03-22T05:42:35.587Z,968.56
2019-03-22T05:43:35.571Z,968.56
2019-03-22T05:44:35.553Z,968.56
2019-03-22T05:45:35.537Z,968.56
2019-03-22T05:46:35.520Z,968.56
2019-03-22T05:47:35.504Z,968.58
2019-03-22T05:48:35.491Z,968.61
2019-03-22T05:49:35.471Z,968.63
2019-03-22T05:50:35.456Z,968.67
2019-03-22T05:51:35.438Z,968.64
2019-03-22T05:52:35.422Z,968.66
2019-03-22T05:53:35.406Z,968.65
2019-03-22T05:54:35.389Z,968.61
2019-03-22T05:55:35.372Z,968.63
2019-03-22T05:56:35.359Z,968.69
2019-03-22T05:57:35.341Z,968.63
2019-03-22T05:58:35.326Z,968.64
2019-03-22T05:59:42.220Z,968.66
2019-03-22T06:00:35.291Z,968.72
2019-03-22T06:01:35.275Z,968.67
2019-03-22T06:02:35.258Z,968.73
2019-03-22T06:03:35.242Z,968.72
2019-03-22T06:04:35.228Z,968.68
2019-03-22T06:05:35.212Z,968.69
2019-03-22T06:06:35.195Z,968.71
2019-03-22T06:07:37.025Z,968.69
2019-03-22T06:08:35.165Z,968.67
2019-03-22T06:09:35.147Z,968.72
2019-03-22T06:10:35.131Z,968.72
2019-03-22T06:11:35.116Z,968.69
2019-03-22T06:12:35.100Z,968.69
2019-03-22T06:13:35.082Z,968.69
2019-03-22T06:14:35.068Z,968.68
2019-03-22T06:15:35.052Z,968.65
2019-03-22T06:16:35.038Z,968.64
2019-03-22T06:17:35.019Z,968.64
2019-03-22T06:18:35.004Z,968.61
2019-03-22T06:19:34.989Z,968.66
2019-03-22T06:20:34.974Z,968.59
2019-03-22T06:21:34.957Z,968.61
2019-03-22T06:22:34.942Z,968.6
2019-03-22T06:23:34.927Z,968.58
2019-03-22T06:24:34.911Z,968.55
2019-03-22T06:25:34.895Z,968.59
2019-03-22T06:26:34.881Z,968.64
2019-03-22T06:27:34.867Z,968.56
2019-03-22T06:28:34.850Z,968.57
2019-03-22T06:29:34.837Z,968.67
2019-03-22T06:30:34.820Z,968.72
2019-03-22T06:31:34.804Z,968.73
2019-03-22T06:32:34.789Z,968.74
2019-03-22T06:33:34.773Z,968.76
2019-03-22T06:34:34.760Z,968.79
2019-03-22T06:35:34.743Z,968.77
2019-03-22T06:36:34.728Z,968.81
2019-03-22T06:37:34.717Z,968.8
2019-03-22T06:38:34.699Z,968.79
2019-03-22T06:39:34.688Z,968.79
2019-03-22T06:40:34.669Z,968.76
2019-03-22T06:41:34.657Z,968.73
2019-03-22T06:42:34.639Z,968.73
2019-03-22T06:43:34.624Z,968.68
2019-03-22T06:44:34.622Z,968.72
2019-03-22T06:45:34.595Z,968.69
2019-03-22T06:46:34.581Z,968.71
2019-03-22T06:47:34.565Z,968.71
2019-03-22T06:48:34.551Z,968.74
2019-03-22T06:49:34.537Z,968.7
2019-03-22T06:50:34.521Z,968.74
2019-03-22T06:51:34.507Z,968.71
2019-03-22T06:52:34.493Z,968.74
2019-03-22T06:53:34.479Z,968.75
2019-03-22T06:54:34.465Z,968.7
2019-03-22T06:55:34.450Z,968.67
2019-03-22T06:56:34.436Z,968.71
2019-03-22T06:57:34.421Z,968.74
2019-03-22T06:58:34.408Z,968.71
2019-03-22T06:59:34.392Z,968.74
2019-03-22T07:00:34.379Z,968.77
2019-03-22T07:01:34.365Z,968.77
2019-03-22T07:02:34.350Z,968.71
2019-03-22T07:03:34.335Z,968.77
2019-03-22T07:04:34.322Z,968.71
2019-03-22T07:05:34.308Z,968.71
2019-03-22T07:06:34.293Z,968.77
2019-03-22T07:07:34.279Z,968.73
2019-03-22T07:08:34.264Z,968.75
2019-03-22T07:09:34.251Z,968.78
2019-03-22T07:10:34.239Z,968.8
2019-03-22T07:11:34.224Z,968.82
2019-03-22T07:12:34.214Z,968.85
2019-03-22T07:13:34.197Z,968.81
2019-03-22T07:14:34.182Z,968.81
2019-03-22T07:15:34.168Z,968.79
2019-03-22T07:16:34.154Z,968.8
2019-03-22T07:17:34.142Z,968.76
2019-03-22T07:18:34.128Z,968.7
2019-03-22T07:19:34.114Z,968.74
2019-03-22T07:20:34.100Z,968.67
2019-03-22T07:21:34.086Z,968.69
2019-03-22T07:22:34.075Z,968.7
2019-03-22T07:23:34.059Z,968.71
2019-03-22T07:24:34.054Z,968.71
2019-03-22T07:25:34.033Z,968.71
2019-03-22T07:26:34.086Z,968.72
2019-03-22T07:27:34.005Z,968.71
2019-03-22T07:28:33.992Z,968.67
2019-03-22T07:29:33.979Z,968.67
2019-03-22T07:30:33.965Z,968.69
2019-03-22T07:31:35.828Z,968.67
2019-03-22T07:32:33.939Z,968.64
2019-03-22T07:33:33.927Z,968.68
2019-03-22T07:34:33.911Z,968.67
2019-03-22T07:35:33.899Z,968.67
2019-03-22T07:36:33.886Z,968.63
2019-03-22T07:37:33.873Z,968.63
2019-03-22T07:38:33.862Z,968.64
2019-03-22T07:39:33.849Z,968.67
2019-03-22T07:40:33.834Z,968.64
2019-03-22T07:41:33.821Z,968.68
2019-03-22T07:42:33.808Z,968.66
2019-03-22T07:43:33.796Z,968.64
2019-03-22T07:44:33.784Z,968.62
2019-03-22T07:45:33.769Z,968.67
2019-03-22T07:46:33.757Z,968.67
2019-03-22T07:47:33.745Z,968.66
2019-03-22T07:48:33.733Z,968.68
2019-03-22T07:49:33.733Z,968.62
2019-03-22T07:50:33.710Z,968.65
2019-03-22T07:51:33.696Z,968.63
2019-03-22T07:52:33.682Z,968.67
2019-03-22T07:53:33.670Z,968.7
2019-03-22T07:54:33.658Z,968.7
2019-03-22T07:55:33.647Z,968.65
2019-03-22T07:56:33.633Z,968.69
2019-03-22T07:57:33.622Z,968.69
2019-03-22T07:58:33.609Z,968.68
2019-03-22T07:59:33.596Z,968.72
2019-03-22T08:00:33.584Z,968.74
2019-03-22T08:01:33.574Z,968.76
2019-03-22T08:02:33.562Z,968.8
2019-03-22T08:03:33.550Z,968.75
2019-03-22T08:04:33.539Z,968.76
2019-03-22T08:05:33.527Z,968.76
2019-03-22T08:06:33.516Z,968.75
2019-03-22T08:07:33.503Z,968.75
2019-03-22T08:08:33.492Z,968.73
2019-03-22T08:09:33.484Z,968.71
2019-03-22T08:10:33.469Z,968.73
2019-03-22T08:11:33.461Z,968.69
2019-03-22T08:12:33.447Z,968.74
2019-03-22T08:13:33.437Z,968.73
2019-03-22T08:14:33.425Z,968.74
2019-03-22T08:15:33.415Z,968.74
2019-03-22T08:16:33.441Z,968.76
2019-03-22T08:17:33.393Z,968.7
2019-03-22T08:18:33.387Z,968.71
2019-03-22T08:19:33.377Z,968.7
2019-03-22T08:20:33.378Z,968.68
2019-03-22T08:21:33.382Z,968.67
2019-03-22T08:22:33.340Z,968.66
2019-03-22T08:23:33.331Z,968.62
2019-03-22T08:24:33.322Z,968.6
2019-03-22T08:25:33.310Z,968.66
2019-03-22T08:26:33.300Z,968.63
2019-03-22T08:27:33.291Z,968.6
2019-03-22T08:28:33.293Z,968.66
2019-03-22T08:29:33.271Z,968.71
2019-03-22T08:30:42.326Z,968.73
2019-03-22T08:31:33.250Z,968.73
2019-03-22T08:32:33.282Z,968.72
2019-03-22T08:33:33.234Z,968.73
2019-03-22T08:34:33.244Z,968.7
2019-03-22T08:35:33.220Z,968.69
2019-03-22T08:36:33.201Z,968.68
2019-03-22T08:37:33.195Z,968.7
2019-03-22T08:38:33.187Z,968.67
2019-03-22T08:39:33.173Z,968.67
2019-03-22T08:40:33.182Z,968.64
2019-03-22T08:41:33.157Z,968.61
2019-03-22T08:42:33.147Z,968.62
2019-03-22T08:43:33.156Z,968.62
2019-03-22T08:44:33.156Z,968.63
2019-03-22T08:45:33.119Z,968.6
2019-03-22T08:46:33.142Z,968.59
2019-03-22T08:47:34.597Z,968.66
2019-03-22T08:48:33.094Z,968.64
2019-03-22T08:49:33.257Z,968.64
2019-03-22T08:50:33.074Z,968.68
2019-03-22T08:51:33.066Z,968.71
2019-03-22T08:52:33.058Z,968.69
2019-03-22T08:53:33.074Z,968.71
2019-03-22T08:54:33.146Z,968.75
2019-03-22T08:55:33.033Z,968.73
2019-03-22T08:56:35.882Z,968.76
2019-03-22T08:57:33.015Z,968.72
2019-03-22T08:58:33.049Z,968.74
2019-03-22T08:59:32.998Z,968.76
2019-03-22T09:00:38.918Z,968.76
2019-03-22T09:01:32.981Z,968.76
2019-03-22T09:02:32.974Z,968.77
2019-03-22T09:03:32.966Z,968.78
2019-03-22T09:04:32.979Z,968.74
2019-03-22T09:05:32.962Z,968.73
2019-03-22T09:06:32.945Z,968.7
2019-03-22T09:07:32.932Z,968.76
2019-03-22T09:08:32.929Z,968.75
2019-03-22T09:09:41.196Z,968.78
2019-03-22T09:10:32.909Z,968.79
2019-03-22T09:11:32.945Z,968.82
2019-03-22T09:12:32.892Z,968.8
2019-03-22T09:13:32.884Z,968.85
2019-03-22T09:14:32.876Z,968.86
2019-03-22T09:15:40.810Z,968.85
2019-03-22T09:16:32.898Z,968.85
2019-03-22T09:17:32.853Z,968.85
2019-03-22T09:18:32.846Z,968.91
2019-03-22T09:19:32.838Z,968.92
2019-03-22T09:20:32.873Z,968.93
2019-03-22T09:21:32.834Z,968.88
2019-03-22T09:22:32.815Z,968.89
2019-03-22T09:23:32.831Z,968.86
2019-03-22T09:24:38.827Z,968.87
2019-03-22T09:25:32.805Z,968.85
2019-03-22T09:26:32.785Z,968.84
2019-03-22T09:27:32.779Z,968.82
2019-03-22T09:28:32.769Z,968.88
2019-03-22T09:29:32.760Z,968.85
2019-03-22T09:30:32.772Z,968.86
2019-03-22T09:31:32.745Z,968.92
2019-03-22T09:32:32.739Z,968.88
2019-03-22T09:33:32.731Z,968.86
2019-03-22T09:34:33.828Z,968.82
2019-03-22T09:35:32.761Z,968.8
2019-03-22T09:36:32.725Z,968.82
2019-03-22T09:37:32.703Z,968.82
2019-03-22T09:38:32.696Z,968.83
2019-03-22T09:39:32.686Z,968.85
2019-03-22T09:40:32.723Z,968.81
2019-03-22T09:41:32.675Z,968.81
2019-03-22T09:42:32.704Z,968.8
2019-03-22T09:43:32.659Z,968.83
2019-03-22T09:44:42.754Z,968.8
2019-03-22T09:45:32.649Z,968.84
2019-03-22T09:46:32.634Z,968.81
2019-03-22T09:47:32.629Z,968.81
2019-03-22T09:48:32.635Z,968.77
2019-03-22T09:49:32.612Z,968.75
2019-03-22T09:50:32.617Z,968.73
2019-03-22T09:51:32.597Z,968.73
2019-03-22T09:52:33.771Z,968.71
2019-03-22T09:53:32.599Z,968.71
2019-03-22T09:54:32.574Z,968.7
2019-03-22T09:55:32.589Z,968.7
2019-03-22T09:56:32.560Z,968.68
2019-03-22T09:57:32.585Z,968.66
2019-03-22T09:58:32.585Z,968.66
2019-03-22T09:59:32.539Z,968.64
2019-03-22T10:00:32.596Z,968.63
2019-03-22T10:01:32.522Z,968.6
2019-03-22T10:02:32.529Z,968.62
2019-03-22T10:03:32.509Z,968.56
2019-03-22T10:04:32.505Z,968.59
2019-03-22T10:05:32.493Z,968.58
2019-03-22T10:06:32.503Z,968.56
2019-03-22T10:07:32.498Z,968.59
2019-03-22T10:08:32.472Z,968.57
2019-03-22T10:09:32.496Z,968.57
2019-03-22T10:10:32.496Z,968.54
2019-03-22T10:11:32.452Z,968.56
2019-03-22T10:12:32.443Z,968.55
2019-03-22T10:13:32.465Z,968.53
2019-03-22T10:14:32.460Z,968.54
2019-03-22T10:15:32.454Z,968.56
2019-03-22T10:16:32.413Z,968.53
2019-03-22T10:17:32.407Z,968.48
2019-03-22T10:18:32.400Z,968.49
2019-03-22T10:19:32.392Z,968.48
2019-03-22T10:20:32.386Z,968.5
2019-03-22T10:21:32.391Z,968.47
2019-03-22T10:22:32.408Z,968.51
2019-03-22T10:23:32.363Z,968.48
2019-03-22T10:24:32.357Z,968.48
2019-03-22T10:25:32.364Z,968.48
2019-03-22T10:26:32.409Z,968.49
2019-03-22T10:27:32.336Z,968.48
2019-03-22T10:28:32.367Z,968.44
2019-03-22T10:29:32.321Z,968.48
2019-03-22T10:30:32.317Z,968.46
2019-03-22T10:31:37.280Z,968.48
2019-03-22T10:32:32.303Z,968.45
2019-03-22T10:33:32.330Z,968.48
2019-03-22T10:34:32.288Z,968.45
2019-03-22T10:35:32.280Z,968.47
2019-03-22T10:36:32.324Z,968.47
2019-03-22T10:37:32.266Z,968.5
2019-03-22T10:38:32.372Z,968.48
2019-03-22T10:39:32.271Z,968.47
2019-03-22T10:40:32.246Z,968.41
2019-03-22T10:41:32.239Z,968.42
2019-03-22T10:42:32.233Z,968.42
2019-03-22T10:43:32.234Z,968.41
2019-03-22T10:44:32.259Z,968.38
2019-03-22T10:45:32.212Z,968.38
2019-03-22T10:46:32.208Z,968.36
2019-03-22T10:47:32.217Z,968.38
2019-03-22T10:48:32.255Z,968.35
2019-03-22T10:49:32.212Z,968.35
2019-03-22T10:50:32.181Z,968.28
2019-03-22T10:51:32.174Z,968.29
2019-03-22T10:52:32.176Z,968.31
2019-03-22T10:53:32.161Z,968.24
2019-03-22T10:54:32.184Z,968.22
2019-03-22T10:55:35.157Z,968.21
2019-03-22T10:56:32.142Z,968.19
2019-03-22T10:57:32.136Z,968.18
2019-03-22T10:58:32.137Z,968.19
2019-03-22T10:59:32.122Z,968.19
2019-03-22T11:00:32.116Z,968.2
2019-03-22T11:01:32.111Z,968.17
2019-03-22T11:02:32.104Z,968.15
2019-03-22T11:03:32.134Z,968.1
2019-03-22T11:04:32.091Z,968.13
2019-03-22T11:05:32.085Z,968.09
2019-03-22T11:06:32.080Z,968.03
2019-03-22T11:07:32.074Z,968.05
2019-03-22T11:08:32.069Z,968.07
2019-03-22T11:09:32.060Z,968.05
2019-03-22T11:10:32.054Z,968.05
2019-03-22T11:11:32.050Z,968.1
2019-03-22T11:12:32.043Z,968.03
2019-03-22T11:13:32.044Z,968.04
2019-03-22T11:14:32.032Z,968.04
2019-03-22T11:15:32.026Z,967.97
2019-03-22T11:16:32.019Z,967.97
2019-03-22T11:17:32.013Z,967.91
2019-03-22T11:18:37.180Z,967.9
2019-03-22T11:19:32.002Z,967.89
2019-03-22T11:20:31.995Z,967.82
2019-03-22T11:21:31.988Z,967.82
2019-03-22T11:22:31.983Z,967.84
2019-03-22T11:23:31.978Z,967.81
2019-03-22T11:24:31.971Z,967.77
2019-03-22T11:25:31.965Z,967.83
2019-03-22T11:26:31.960Z,967.8
2019-03-22T11:27:31.953Z,967.78
2019-03-22T11:28:31.947Z,967.85
2019-03-22T11:29:31.941Z,967.84
2019-03-22T11:30:31.939Z,967.88
2019-03-22T11:31:39.475Z,967.83
2019-03-22T11:32:33.425Z,967.86
2019-03-22T11:33:31.918Z,967.82
2019-03-22T11:34:31.913Z,967.79
2019-03-22T11:35:31.905Z,967.75
2019-03-22T11:36:31.901Z,967.74
2019-03-22T11:37:31.894Z,967.72
2019-03-22T11:38:31.888Z,967.78
2019-03-22T11:39:31.883Z,967.74
2019-03-22T11:40:31.878Z,967.75
2019-03-22T11:41:31.872Z,967.75
2019-03-22T11:42:31.865Z,967.69
2019-03-22T11:43:31.860Z,967.69
2019-03-22T11:44:31.855Z,967.74
2019-03-22T11:45:31.850Z,967.7
2019-03-22T11:46:31.845Z,967.71
2019-03-22T11:47:31.837Z,967.77
2019-03-22T11:48:31.831Z,967.73
2019-03-22T11:49:31.824Z,967.7
2019-03-22T11:50:31.820Z,967.68
2019-03-22T11:51:31.815Z,967.71
2019-03-22T11:52:31.810Z,967.72
2019-03-22T11:53:31.802Z,967.67
2019-03-22T11:54:31.798Z,967.64
2019-03-22T11:55:31.793Z,967.63
2019-03-22T11:56:31.787Z,967.65
2019-03-22T11:57:31.782Z,967.62
2019-03-22T11:58:31.778Z,967.62
2019-03-22T11:59:31.771Z,967.59
2019-03-22T12:00:31.763Z,967.54
2019-03-22T12:01:31.759Z,967.48
2019-03-22T12:02:31.755Z,967.52
2019-03-22T12:03:31.751Z,967.51
2019-03-22T12:04:31.743Z,967.54
2019-03-22T12:05:39.975Z,967.51
2019-03-22T12:06:31.732Z,967.51
2019-03-22T12:07:31.728Z,967.52
2019-03-22T12:08:31.719Z,967.5
2019-03-22T12:09:31.715Z,967.48
2019-03-22T12:10:31.711Z,967.48
2019-03-22T12:11:31.704Z,967.43
2019-03-22T12:12:31.698Z,967.4
2019-03-22T12:13:31.695Z,967.42
2019-03-22T12:14:31.689Z,967.39
2019-03-22T12:15:31.683Z,967.4
2019-03-22T12:16:31.676Z,967.36
2019-03-22T12:17:31.671Z,967.36
2019-03-22T12:18:31.665Z,967.4
2019-03-22T12:19:31.659Z,967.39
2019-03-22T12:20:31.654Z,967.36
2019-03-22T12:21:31.650Z,967.37
2019-03-22T12:22:31.643Z,967.35
2019-03-22T12:23:31.640Z,967.36
2019-03-22T12:24:31.632Z,967.34
2019-03-22T12:25:31.628Z,967.33
2019-03-22T12:26:31.622Z,967.35
2019-03-22T12:27:36.411Z,967.27
2019-03-22T12:28:31.611Z,967.33
2019-03-22T12:29:31.607Z,967.31
2019-03-22T12:30:31.600Z,967.27